Time;durP1;ratioP1;P1;durP2;ratioP2;P2;SDS_P1;SDS_P2;PMS_P1;PMS_P2;Temp;Humidity;BMP_temperature;BMP_pressure;BME280_temperature;BME280_humidity;BME280_pressure;Samples;Min_cycle;Max_cycle;Signal;HPM_P1;HPM_P2
2022/03/08 05:30:25;;;;;;;0.60;0.60;;;-3.10;76.90;;;;;;5367611;23;20419;-79
2022/03/08 07:47:01;;;;;;;0.40;0.40;;;-0.10;74.30;;;;;;5605293;23;21747;-84
2022/03/08 07:49:28;;;;;;;0.30;0.30;;;0.00;73.60;;;;;;4996086;28;20511;-83
2022/03/08 07:51:55;;;;;;;0.30;0.30;;;0.00;73.40;;;;;;4997365;28;20433;-83
2022/03/08 07:54:21;;;;;;;0.30;0.30;;;0.10;73.20;;;;;;4997044;28;20395;-83
2022/03/08 07:56:48;;;;;;;0.30;0.30;;;0.10;73.20;;;;;;4997053;28;20468;-83
2022/03/08 07:59:15;;;;;;;0.30;0.30;;;0.10;73.00;;;;;;4997277;28;20449;-83
2022/03/08 08:01:42;;;;;;;3.13;0.57;;;0.30;73.00;;;;;;4997428;28;20417;-84
2022/03/08 08:04:11;;;;;;;0.30;0.30;;;0.40;72.90;;;;;;5001593;28;20448;-84
2022/03/08 08:06:37;;;;;;;0.30;0.30;;;0.50;73.30;;;;;;4997272;28;20817;-84
2022/03/08 08:09:05;;;;;;;0.40;0.40;;;0.60;72.30;;;;;;4997092;28;20927;-84
2022/03/08 08:11:31;;;;;;;0.30;0.30;;;0.70;72.60;;;;;;4996995;28;20455;-84
2022/03/08 08:13:58;;;;;;;0.30;0.30;;;0.80;72.70;;;;;;4996893;28;20453;-84
2022/03/08 08:16:25;;;;;;;0.30;0.30;;;0.80;72.20;;;;;;4996707;28;20487;-83
2022/03/08 08:18:52;;;;;;;0.30;0.30;;;0.90;73.00;;;;;;4996742;28;20456;-84
2022/03/08 08:21:20;;;;;;;0.30;0.30;;;1.10;72.30;;;;;;4996707;28;20484;-83
2022/03/08 08:23:47;;;;;;;0.30;0.30;;;1.30;71.90;;;;;;4996366;28;20443;-84
2022/03/08 08:26:13;;;;;;;0.30;0.20;;;1.40;71.70;;;;;;4996027;28;20456;-84
2022/03/08 08:28:40;;;;;;;0.50;0.40;;;1.50;71.20;;;;;;4995676;28;20475;-84
2022/03/08 08:31:07;;;;;;;0.30;0.30;;;1.70;71.10;;;;;;4996572;28;20878;-84
2022/03/08 08:33:34;;;;;;;0.30;0.20;;;1.80;71.20;;;;;;4996295;28;20573;-84
2022/03/08 08:36:01;;;;;;;0.87;0.80;;;2.00;70.70;;;;;;4996073;28;20456;-84
2022/03/08 08:38:29;;;;;;;0.30;0.30;;;2.10;70.20;;;;;;4996325;28;20473;-84
2022/03/08 08:40:56;;;;;;;0.70;0.40;;;2.20;69.80;;;;;;4996278;28;20457;-84
2022/03/08 08:43:23;;;;;;;0.30;0.30;;;2.40;70.00;;;;;;4996236;28;20479;-85
2022/03/08 08:45:52;;;;;;;0.30;0.30;;;2.60;69.40;;;;;;4996247;28;20456;-84
2022/03/08 08:48:20;;;;;;;0.30;0.30;;;2.80;69.00;;;;;;4995870;28;20983;-84
2022/03/08 08:51:12;;;;;;;0.53;0.50;;;3.10;67.80;;;;;;4995969;28;20448;-84
2022/03/08 08:53:41;;;;;;;0.30;0.30;;;3.20;67.90;;;;;;4996034;28;20484;-84
2022/03/08 08:56:07;;;;;;;0.83;0.60;;;3.50;67.20;;;;;;4995695;28;20433;-84
2022/03/08 08:58:34;;;;;;;0.30;0.30;;;3.70;66.60;;;;;;4996587;28;20483;-83
2022/03/08 09:01:01;;;;;;;0.30;0.30;;;3.90;64.60;;;;;;4995919;28;20439;-84
2022/03/08 09:03:28;;;;;;;0.40;0.40;;;4.00;64.50;;;;;;4995836;28;20455;-84
2022/03/08 09:05:55;;;;;;;0.47;0.47;;;4.20;64.50;;;;;;4995926;28;20559;-84
2022/03/08 09:08:24;;;;;;;0.60;0.60;;;4.50;62.90;;;;;;4995796;28;20468;-84
2022/03/08 09:10:52;;;;;;;0.50;0.50;;;5.10;61.40;;;;;;4996022;28;20463;-84
2022/03/08 09:13:19;;;;;;;0.80;0.80;;;6.10;59.80;;;;;;5005493;28;20436;-84
2022/03/08 09:15:46;;;;;;;0.30;0.23;;;6.90;57.10;;;;;;4997557;28;20453;-84
2022/03/08 09:18:13;;;;;;;0.93;0.60;;;7.50;56.30;;;;;;4995164;28;20492;-84
2022/03/08 09:20:41;;;;;;;0.57;0.57;;;8.20;54.00;;;;;;4995618;28;20437;-83
2022/03/08 09:23:08;;;;;;;0.60;0.60;;;9.20;53.40;;;;;;4995374;28;20456;-83
2022/03/08 09:25:35;;;;;;;0.60;0.60;;;10.20;49.90;;;;;;4995071;28;20464;-84
2022/03/08 09:28:05;;;;;;;0.80;0.60;;;10.40;48.20;;;;;;4995012;28;20461;-83
2022/03/08 09:30:32;;;;;;;0.70;0.50;;;10.90;45.90;;;;;;4995326;28;20448;-83
2022/03/08 09:33:01;;;;;;;1.37;0.60;;;11.00;45.60;;;;;;4995026;28;20455;-83
2022/03/08 09:35:28;;;;;;;0.77;0.57;;;11.80;44.80;;;;;;4995283;28;20452;-83
2022/03/08 09:37:56;;;;;;;0.90;0.90;;;11.90;44.30;;;;;;4994644;28;20496;-81
2022/03/08 09:40:24;;;;;;;0.53;0.53;;;12.40;43.10;;;;;;4994927;28;20448;-81
2022/03/08 09:42:51;;;;;;;0.57;0.40;;;12.90;42.80;;;;;;4994910;28;20496;-81
2022/03/08 09:45:20;;;;;;;0.50;0.50;;;13.30;40.90;;;;;;4995247;28;20457;-84
2022/03/08 09:47:47;;;;;;;1.30;0.80;;;13.30;40.60;;;;;;4994618;28;20483;-84
2022/03/08 09:50:16;;;;;;;0.50;0.50;;;13.50;40.30;;;;;;4995432;28;20453;-84
2022/03/08 09:52:43;;;;;;;5.60;1.33;;;13.40;40.00;;;;;;4994706;28;20444;-84
2022/03/08 09:55:13;;;;;;;1.73;0.60;;;13.90;40.10;;;;;;4994642;28;20909;-84
2022/03/08 09:57:40;;;;;;;0.50;0.40;;;13.80;39.60;;;;;;4994699;28;20488;-84
2022/03/08 10:00:08;;;;;;;0.67;0.50;;;14.30;38.60;;;;;;4994986;28;20491;-84
2022/03/08 10:02:45;;;;;;;0.77;0.73;;;14.30;37.10;;;;;;4994741;28;20459;-84
2022/03/08 10:05:12;;;;;;;0.80;0.70;;;14.10;37.90;;;;;;4994959;28;20444;-83
2022/03/08 10:07:38;;;;;;;1.43;1.00;;;13.80;37.70;;;;;;4994913;28;20469;-85
2022/03/08 10:10:06;;;;;;;1.37;1.17;;;13.20;37.50;;;;;;4995140;28;20454;-85
2022/03/08 10:12:33;;;;;;;0.40;0.30;;;12.30;38.00;;;;;;4995179;28;20496;-85
2022/03/08 10:15:00;;;;;;;0.97;0.67;;;12.30;38.60;;;;;;4994492;28;20445;-87
2022/03/08 10:17:35;;;;;;;1.13;0.50;;;12.60;38.50;;;;;;4994608;28;20499;-86
2022/03/08 10:20:04;;;;;;;0.70;0.50;;;13.10;39.40;;;;;;4995079;28;20440;-86
2022/03/08 10:22:34;;;;;;;0.40;0.30;;;13.00;37.50;;;;;;4994743;28;20453;-86
2022/03/08 10:25:12;;;;;;;0.80;0.47;;;12.20;38.30;;;;;;4994898;28;20444;-86
2022/03/08 10:27:43;;;;;;;0.40;0.40;;;12.10;38.30;;;;;;4994259;28;20464;-86
2022/03/08 10:30:12;;;;;;;1.63;0.77;;;11.80;38.80;;;;;;4994443;28;20776;-86
2022/03/08 10:32:40;;;;;;;0.40;0.33;;;12.60;38.60;;;;;;4995037;28;20441;-86
2022/03/08 10:35:10;;;;;;;0.50;0.40;;;13.60;37.70;;;;;;4994802;28;20475;-86
2022/03/08 10:37:38;;;;;;;0.83;0.83;;;14.80;35.30;;;;;;4994680;28;20523;-87
2022/03/08 10:40:08;;;;;;;1.27;0.60;;;15.20;35.30;;;;;;4994320;28;20943;-86
2022/03/08 10:42:37;;;;;;;0.30;0.30;;;15.60;33.50;;;;;;4995120;28;20848;-84
2022/03/08 10:45:07;;;;;;;0.50;0.40;;;15.30;32.60;;;;;;4994331;28;20959;-86
2022/03/08 10:47:42;;;;;;;0.50;0.43;;;15.10;33.30;;;;;;4994240;28;20539;-86
2022/03/08 10:50:11;;;;;;;0.40;0.30;;;15.00;33.40;;;;;;4993518;28;20455;-86
2022/03/08 10:52:41;;;;;;;0.87;0.47;;;15.50;32.70;;;;;;4994517;28;20436;-86
2022/03/08 10:55:13;;;;;;;0.50;0.47;;;15.50;32.50;;;;;;4994634;28;20419;-87
2022/03/08 10:57:42;;;;;;;0.93;0.53;;;16.30;31.60;;;;;;4993944;28;20496;-86
2022/03/08 11:00:14;;;;;;;0.43;0.40;;;16.20;31.10;;;;;;4994607;28;20443;-87
2022/03/08 11:02:50;;;;;;;1.27;0.50;;;15.40;31.40;;;;;;4995258;28;20535;-86
2022/03/08 11:05:19;;;;;;;1.00;0.70;;;15.80;32.60;;;;;;4994989;28;20448;-87
2022/03/08 11:07:47;;;;;;;0.70;0.70;;;16.20;31.10;;;;;;4994541;28;20483;-87
2022/03/08 11:10:14;;;;;;;0.40;0.40;;;15.40;30.50;;;;;;4994751;28;20433;-86
2022/03/08 11:12:43;;;;;;;1.07;0.73;;;14.40;31.80;;;;;;4995014;28;20920;-86
2022/03/08 11:15:13;;;;;;;0.63;0.40;;;13.90;32.20;;;;;;4994524;28;20432;-87
2022/03/08 11:17:42;;;;;;;1.63;1.63;;;12.60;33.50;;;;;;4994351;28;20502;-86
2022/03/08 11:20:11;;;;;;;3.23;1.03;;;11.40;35.20;;;;;;4995236;28;20793;-86
2022/03/08 11:22:40;;;;;;;0.60;0.60;;;10.70;36.30;;;;;;4994215;28;20417;-86
2022/03/08 11:25:08;;;;;;;0.50;0.30;;;9.80;37.90;;;;;;4994353;28;20437;-86
2022/03/08 11:27:36;;;;;;;0.83;0.83;;;9.20;38.60;;;;;;4993673;28;20585;-87
2022/03/08 11:30:05;;;;;;;0.67;0.67;;;8.80;38.80;;;;;;4993993;28;20793;-86
2022/03/08 11:32:47;;;;;;;0.50;0.30;;;8.70;39.80;;;;;;4993827;28;20417;-86
2022/03/08 11:35:19;;;;;;;0.33;0.27;;;8.50;39.20;;;;;;4994626;28;20474;-86
2022/03/08 11:37:50;;;;;;;0.63;0.63;;;8.10;39.40;;;;;;4993821;28;20682;-86
2022/03/08 11:40:18;;;;;;;1.07;0.83;;;7.70;39.80;;;;;;4994125;28;20444;-86
2022/03/08 11:42:46;;;;;;;1.03;1.03;;;7.60;40.20;;;;;;4993847;28;20436;-86
2022/03/08 11:45:20;;;;;;;0.80;0.80;;;7.50;40.50;;;;;;4993936;28;20437;-86
2022/03/08 11:47:53;;;;;;;0.30;0.30;;;7.60;41.20;;;;;;4993567;28;20853;-86
2022/03/08 11:50:23;;;;;;;0.30;0.30;;;7.90;41.80;;;;;;4993753;28;20463;-85
2022/03/08 11:53:06;;;;;;;0.50;0.40;;;8.10;41.70;;;;;;4993592;28;20511;-86
2022/03/08 11:55:34;;;;;;;0.37;0.30;;;8.20;40.50;;;;;;4994033;28;20748;-86
2022/03/08 11:58:04;;;;;;;0.30;0.30;;;8.10;40.40;;;;;;4994462;28;20499;-86
2022/03/08 12:00:40;;;;;;;0.50;0.50;;;7.80;41.30;;;;;;4993516;28;20448;-86
2022/03/08 12:03:10;;;;;;;0.40;0.30;;;7.80;42.80;;;;;;4997296;28;20417;-87
2022/03/08 12:05:58;;;;;;;0.53;0.53;;;7.90;42.30;;;;;;4997793;28;20483;-86
2022/03/08 12:09:08;;;;;;;0.47;0.40;;;7.80;42.10;;;;;;4997071;28;20460;-87
2022/03/08 12:11:47;;;;;;;0.73;0.30;;;7.70;40.90;;;;;;4994499;28;20951;-86
2022/03/08 12:14:17;;;;;;;0.97;0.77;;;7.60;41.70;;;;;;4996949;28;20420;-86
2022/03/08 12:16:46;;;;;;;0.50;0.43;;;7.50;40.90;;;;;;4996846;28;20428;-86
2022/03/08 12:19:20;;;;;;;0.40;0.40;;;7.40;41.20;;;;;;4996879;28;20560;-86
2022/03/08 12:21:55;;;;;;;0.33;0.33;;;7.30;42.50;;;;;;4996938;28;20432;-86
2022/03/08 12:24:22;;;;;;;0.30;0.30;;;7.30;41.00;;;;;;4996575;28;20416;-86
2022/03/08 12:27:01;;;;;;;0.80;0.40;;;7.20;41.80;;;;;;4996425;28;20995;-86
2022/03/08 12:29:33;;;;;;;0.30;0.30;;;7.20;41.90;;;;;;4996992;28;20432;-85
2022/03/08 12:32:23;;;;;;;0.70;0.30;;;7.10;41.80;;;;;;4997265;28;20802;-86
2022/03/08 12:34:52;;;;;;;0.50;0.50;;;7.10;43.40;;;;;;4997033;28;20522;-86
2022/03/08 12:37:21;;;;;;;0.60;0.60;;;7.00;42.90;;;;;;4996487;28;20473;-86
2022/03/08 12:39:51;;;;;;;1.00;0.77;;;7.10;42.60;;;;;;4996824;28;20437;-85
2022/03/08 12:42:22;;;;;;;0.30;0.20;;;7.00;42.50;;;;;;4996529;28;20962;-86
2022/03/08 12:44:58;;;;;;;0.30;0.30;;;7.00;43.30;;;;;;4996535;28;20799;-86
2022/03/08 12:47:26;;;;;;;1.00;1.00;;;7.00;43.20;;;;;;4995946;28;20475;-86
2022/03/08 12:49:53;;;;;;;0.37;0.37;;;7.00;43.20;;;;;;4995938;28;20961;-86
2022/03/08 12:52:20;;;;;;;0.60;0.30;;;6.90;43.00;;;;;;4995943;28;20441;-86
2022/03/08 12:54:48;;;;;;;0.30;0.30;;;6.90;43.00;;;;;;4996026;28;20923;-86
2022/03/08 12:57:16;;;;;;;0.50;0.50;;;6.90;42.90;;;;;;4995863;28;21006;-86
2022/03/08 12:59:47;;;;;;;0.30;0.30;;;6.90;43.60;;;;;;4996003;28;20966;-86
2022/03/08 13:02:14;;;;;;;0.37;0.30;;;6.90;42.60;;;;;;4995903;28;20412;-85
2022/03/08 13:04:41;;;;;;;1.00;0.60;;;6.70;43.00;;;;;;4996151;28;20874;-86
2022/03/08 13:07:10;;;;;;;0.40;0.33;;;6.60;43.60;;;;;;4995780;28;20484;-85
2022/03/08 13:09:50;;;;;;;2.10;0.77;;;6.50;43.70;;;;;;4995830;28;20451;-86
2022/03/08 13:12:18;;;;;;;0.50;0.50;;;6.50;44.00;;;;;;4995453;28;20452;-86
2022/03/08 13:15:09;;;;;;;0.40;0.40;;;6.50;43.90;;;;;;4995259;28;20526;-86
2022/03/08 13:17:36;;;;;;;0.30;0.30;;;6.70;43.30;;;;;;4995821;28;20822;-85
2022/03/08 13:20:04;;;;;;;0.37;0.37;;;6.80;43.10;;;;;;4995818;28;20935;-86
2022/03/08 13:22:31;;;;;;;0.50;0.47;;;6.80;43.50;;;;;;4995730;28;20507;-85
2022/03/08 13:25:07;;;;;;;0.40;0.37;;;6.80;43.20;;;;;;4995432;28;20448;-86
2022/03/08 13:28:00;;;;;;;1.70;0.83;;;6.70;43.40;;;;;;4995520;28;20955;-85
2022/03/08 13:30:30;;;;;;;0.83;0.83;;;6.70;43.70;;;;;;4995640;28;20437;-85
2022/03/08 13:33:27;;;;;;;0.30;0.30;;;6.60;44.00;;;;;;4996351;28;20460;-85
2022/03/08 13:35:57;;;;;;;1.03;1.03;;;6.70;44.20;;;;;;4916299;29;20443;-85
2022/03/08 13:38:26;;;;;;;0.30;0.30;;;6.80;43.80;;;;;;4978438;28;21005;-85
2022/03/08 13:40:54;;;;;;;1.90;0.97;;;6.70;43.20;;;;;;4995276;28;20440;-86
2022/03/08 13:43:22;;;;;;;0.30;0.30;;;6.80;43.30;;;;;;4995183;28;20449;-85
2022/03/08 13:45:52;;;;;;;0.30;0.30;;;6.80;44.10;;;;;;4994997;28;20467;-85
2022/03/08 13:48:25;;;;;;;1.43;0.50;;;6.70;43.40;;;;;;4994626;28;20477;-85
2022/03/08 13:50:52;;;;;;;0.30;0.20;;;6.70;43.30;;;;;;4994910;28;20417;-85
2022/03/08 13:53:19;;;;;;;0.40;0.30;;;6.80;43.10;;;;;;4995055;28;20448;-85
2022/03/08 13:55:47;;;;;;;0.30;0.30;;;6.80;43.90;;;;;;4995245;28;20451;-84
2022/03/08 13:58:17;;;;;;;0.60;0.60;;;6.80;43.80;;;;;;4994569;28;20484;-85
2022/03/08 14:00:44;;;;;;;0.83;0.83;;;6.80;43.40;;;;;;4995121;28;20459;-85
2022/03/08 14:03:14;;;;;;;0.33;0.30;;;6.90;43.30;;;;;;4994872;28;20448;-85
2022/03/08 14:05:53;;;;;;;0.63;0.63;;;6.90;43.10;;;;;;4995512;28;20772;-85
2022/03/08 14:08:24;;;;;;;0.30;0.30;;;6.90;43.40;;;;;;4994796;28;20472;-85
2022/03/08 14:10:53;;;;;;;0.50;0.50;;;6.90;43.30;;;;;;4994526;28;20440;-84
2022/03/08 14:13:20;;;;;;;1.23;0.73;;;6.90;43.50;;;;;;4995130;28;20467;-85
2022/03/08 14:15:54;;;;;;;2.30;0.43;;;6.90;43.40;;;;;;4994654;28;20460;-85
2022/03/08 14:18:22;;;;;;;0.30;0.30;;;6.80;43.40;;;;;;4994337;28;20991;-85
2022/03/08 14:20:50;;;;;;;0.30;0.30;;;6.80;43.70;;;;;;4994083;28;20978;-86
2022/03/08 14:23:17;;;;;;;1.13;0.43;;;6.90;43.60;;;;;;4994778;28;20516;-85
2022/03/08 14:25:58;;;;;;;0.40;0.30;;;6.90;44.00;;;;;;4994512;28;20449;-85
2022/03/08 14:28:46;;;;;;;0.40;0.40;;;6.80;44.10;;;;;;4994001;28;20994;-85
2022/03/08 14:31:18;;;;;;;0.30;0.30;;;6.80;44.10;;;;;;4994639;28;20433;-86
2022/03/08 14:34:07;;;;;;;0.30;0.30;;;6.80;43.80;;;;;;4994048;28;20436;-85
2022/03/08 14:36:37;;;;;;;0.50;0.30;;;6.90;43.30;;;;;;4994578;28;20456;-84
2022/03/08 14:39:22;;;;;;;0.40;0.30;;;6.90;42.50;;;;;;4994084;28;20483;-85
2022/03/08 14:42:14;;;;;;;0.90;0.30;;;6.90;43.10;;;;;;4994251;28;20443;-84
2022/03/08 14:44:43;;;;;;;0.40;0.30;;;6.90;42.50;;;;;;4987161;28;20461;-84
2022/03/08 14:47:12;;;;;;;0.30;0.30;;;7.00;42.70;;;;;;4993693;28;20460;-84
2022/03/08 14:49:42;;;;;;;0.70;0.70;;;6.90;42.70;;;;;;4994145;28;20440;-84
2022/03/08 14:52:17;;;;;;;0.30;0.30;;;7.10;42.10;;;;;;4994062;28;20452;-84
2022/03/08 14:54:44;;;;;;;0.40;0.30;;;7.10;41.60;;;;;;4994179;28;20436;-85
2022/03/08 14:57:11;;;;;;;0.30;0.30;;;7.10;41.70;;;;;;4994086;28;20483;-84
2022/03/08 14:59:38;;;;;;;0.40;0.40;;;7.00;41.90;;;;;;4993716;28;21033;-85
2022/03/08 15:02:05;;;;;;;0.30;0.30;;;7.00;42.00;;;;;;4993914;28;20452;-84
2022/03/08 15:04:32;;;;;;;0.30;0.30;;;7.00;42.40;;;;;;4993996;28;20456;-85
2022/03/08 15:07:00;;;;;;;1.83;0.50;;;6.90;42.40;;;;;;4993873;28;20459;-84
2022/03/08 15:09:27;;;;;;;0.53;0.53;;;6.90;42.50;;;;;;4993748;28;20929;-82
2022/03/08 15:11:53;;;;;;;0.37;0.30;;;7.00;42.40;;;;;;4993770;28;20455;-82
2022/03/08 15:14:20;;;;;;;0.40;0.30;;;7.00;42.40;;;;;;4993828;28;20444;-82
2022/03/08 15:16:48;;;;;;;0.50;0.50;;;7.00;42.10;;;;;;4993833;28;20455;-82
2022/03/08 15:19:15;;;;;;;0.40;0.30;;;7.00;42.50;;;;;;4993408;28;20489;-82
2022/03/08 15:21:41;;;;;;;0.50;0.30;;;7.00;43.00;;;;;;4993543;28;20947;-81
2022/03/08 15:24:10;;;;;;;1.10;1.10;;;6.90;43.00;;;;;;4993490;28;20961;-82
2022/03/08 15:26:37;;;;;;;0.30;0.30;;;7.00;43.30;;;;;;4993484;28;20830;-82
2022/03/08 15:29:05;;;;;;;0.40;0.30;;;7.00;43.50;;;;;;4993560;28;20468;-82
2022/03/08 15:31:32;;;;;;;0.77;0.73;;;7.00;44.00;;;;;;4993563;28;20523;-82
2022/03/08 15:33:59;;;;;;;0.70;0.70;;;7.00;43.80;;;;;;4993579;28;20460;-82
2022/03/08 15:36:26;;;;;;;0.90;0.50;;;7.00;43.80;;;;;;4994567;28;20448;-82
2022/03/08 15:38:54;;;;;;;0.50;0.30;;;6.90;44.20;;;;;;4996973;28;21081;-82
2022/03/08 15:41:24;;;;;;;1.07;0.63;;;6.80;44.20;;;;;;4997455;28;20456;-82
2022/03/08 15:43:52;;;;;;;0.60;0.60;;;6.80;44.80;;;;;;4997222;28;20962;-82
2022/03/08 15:46:21;;;;;;;0.30;0.30;;;6.80;44.50;;;;;;4997307;28;20444;-82
2022/03/08 15:48:49;;;;;;;0.30;0.30;;;6.80;44.80;;;;;;4996682;28;20495;-82
2022/03/08 15:51:16;;;;;;;0.37;0.37;;;6.80;44.60;;;;;;4997194;28;20456;-82
2022/03/08 15:53:43;;;;;;;0.30;0.30;;;6.80;44.80;;;;;;4997037;28;20460;-82
2022/03/08 15:56:10;;;;;;;0.47;0.47;;;6.80;44.80;;;;;;4997004;28;20464;-82
2022/03/08 15:58:38;;;;;;;0.30;0.30;;;6.80;45.10;;;;;;4996653;28;20852;-82
2022/03/08 16:01:05;;;;;;;1.10;0.50;;;6.70;44.70;;;;;;4997064;28;20466;-82
2022/03/08 16:03:32;;;;;;;0.77;0.70;;;6.80;44.70;;;;;;4996798;28;20437;-82
2022/03/08 16:05:59;;;;;;;0.77;0.53;;;6.80;44.50;;;;;;4996945;28;20452;-82
2022/03/08 16:08:26;;;;;;;0.70;0.40;;;6.80;44.20;;;;;;4996818;28;20480;-82
2022/03/08 16:10:54;;;;;;;0.30;0.30;;;6.80;43.60;;;;;;4996942;28;20472;-82
2022/03/08 16:13:21;;;;;;;0.30;0.20;;;6.80;44.20;;;;;;4996633;28;20441;-83
2022/03/08 16:15:51;;;;;;;0.50;0.50;;;6.80;43.70;;;;;;4996913;28;20472;-83
2022/03/08 16:18:18;;;;;;;0.30;0.30;;;6.70;44.10;;;;;;4996788;28;20479;-83
2022/03/08 16:20:46;;;;;;;0.73;0.53;;;6.60;44.30;;;;;;4996447;28;20947;-83
2022/03/08 16:23:13;;;;;;;0.40;0.30;;;6.60;44.20;;;;;;4996529;28;20532;-83
2022/03/08 16:25:41;;;;;;;0.50;0.47;;;6.50;44.10;;;;;;4996599;28;20453;-83
2022/03/08 16:28:08;;;;;;;0.50;0.40;;;6.60;44.10;;;;;;4996572;28;20474;-83
2022/03/08 16:30:35;;;;;;;0.30;0.20;;;6.60;44.00;;;;;;4996545;28;20448;-82
2022/03/08 16:33:04;;;;;;;0.40;0.40;;;6.50;44.30;;;;;;4996251;28;20440;-83
2022/03/08 16:35:31;;;;;;;0.30;0.30;;;6.50;44.60;;;;;;4996229;28;20441;-83
2022/03/08 16:38:00;;;;;;;0.30;0.30;;;6.50;44.40;;;;;;4996360;28;20875;-83
2022/03/08 16:40:27;;;;;;;0.30;0.20;;;6.40;44.50;;;;;;4996296;28;20577;-83
2022/03/08 16:42:54;;;;;;;0.40;0.30;;;6.30;44.40;;;;;;4996307;28;20456;-83
2022/03/08 16:45:21;;;;;;;0.73;0.43;;;6.30;44.20;;;;;;4996280;28;20452;-83
2022/03/08 16:47:49;;;;;;;0.67;0.67;;;6.30;44.00;;;;;;4994540;28;20500;-83
2022/03/08 16:50:18;;;;;;;0.30;0.30;;;6.20;44.10;;;;;;4996249;28;20550;-83
2022/03/08 16:52:44;;;;;;;0.40;0.40;;;6.10;44.50;;;;;;4996216;28;20467;-83
2022/03/08 16:55:12;;;;;;;0.50;0.40;;;6.10;44.00;;;;;;4995803;28;20440;-83
2022/03/08 16:57:39;;;;;;;0.30;0.30;;;6.00;44.50;;;;;;4995767;28;20850;-83
2022/03/08 17:00:07;;;;;;;0.40;0.40;;;5.90;44.10;;;;;;4996060;28;20468;-83
2022/03/08 17:02:34;;;;;;;0.30;0.30;;;5.80;44.80;;;;;;4996370;28;20444;-83
2022/03/08 17:05:01;;;;;;;0.40;0.40;;;5.80;45.20;;;;;;4996614;28;20801;-84
2022/03/08 17:07:30;;;;;;;0.40;0.40;;;5.80;44.50;;;;;;4996126;28;20453;-83
2022/03/08 17:09:57;;;;;;;0.30;0.20;;;5.70;44.60;;;;;;4996178;28;20912;-84
2022/03/08 17:12:24;;;;;;;0.60;0.60;;;5.50;45.10;;;;;;4996632;28;20848;-84
2022/03/08 17:14:52;;;;;;;0.30;0.30;;;5.40;45.30;;;;;;4995521;28;20421;-83
2022/03/08 17:17:19;;;;;;;0.30;0.20;;;5.40;45.50;;;;;;4996092;28;20559;-83
2022/03/08 17:19:46;;;;;;;0.30;0.27;;;5.40;45.90;;;;;;4996161;28;20472;-83
2022/03/08 17:22:13;;;;;;;1.43;0.40;;;5.30;45.10;;;;;;4995967;28;20959;-83
2022/03/08 17:24:43;;;;;;;0.40;0.40;;;5.40;44.90;;;;;;4996005;28;20445;-83
2022/03/08 17:27:10;;;;;;;0.30;0.30;;;5.40;44.60;;;;;;4996474;28;20480;-83
2022/03/08 17:29:37;;;;;;;5.50;0.50;;;5.30;45.40;;;;;;4995901;28;20520;-83
2022/03/08 17:32:05;;;;;;;0.30;0.30;;;5.20;45.00;;;;;;4995917;28;20447;-84
2022/03/08 17:34:32;;;;;;;0.30;0.30;;;5.10;45.60;;;;;;4996447;28;20515;-83
2022/03/08 17:37:00;;;;;;;0.57;0.57;;;5.10;45.60;;;;;;4995615;28;20808;-83
2022/03/08 17:39:29;;;;;;;0.40;0.30;;;5.00;45.80;;;;;;4996257;28;20519;-83
2022/03/08 17:41:57;;;;;;;0.47;0.47;;;5.00;45.70;;;;;;4997268;28;20460;-84
2022/03/08 17:44:24;;;;;;;0.50;0.50;;;4.90;45.80;;;;;;4995216;28;20444;-84
2022/03/08 17:46:51;;;;;;;0.30;0.20;;;4.90;46.40;;;;;;4994700;28;20943;-84
2022/03/08 17:49:18;;;;;;;0.53;0.37;;;4.80;45.90;;;;;;4994682;28;20479;-84
2022/03/08 17:51:45;;;;;;;0.40;0.40;;;4.70;45.90;;;;;;4994781;28;20515;-84
2022/03/08 17:54:12;;;;;;;0.30;0.30;;;4.70;46.00;;;;;;4995044;28;20531;-84
2022/03/08 17:56:39;;;;;;;0.50;0.50;;;4.50;46.80;;;;;;4995109;28;20452;-84
2022/03/08 17:59:07;;;;;;;0.30;0.30;;;4.50;46.80;;;;;;4994273;28;20452;-84
2022/03/08 18:01:34;;;;;;;0.30;0.20;;;4.40;47.00;;;;;;4994540;28;20459;-84
2022/03/08 18:04:01;;;;;;;0.50;0.40;;;4.30;46.80;;;;;;4994531;28;20439;-84
2022/03/08 18:06:28;;;;;;;0.40;0.40;;;4.20;46.90;;;;;;4994754;28;20460;-84
2022/03/08 18:08:55;;;;;;;0.30;0.30;;;4.10;46.90;;;;;;4994341;28;20473;-84
2022/03/08 18:11:22;;;;;;;1.33;0.60;;;4.10;47.10;;;;;;4994744;28;20425;-84
2022/03/08 18:13:49;;;;;;;0.30;0.30;;;4.10;47.10;;;;;;4994692;28;20440;-84
2022/03/08 18:16:17;;;;;;;1.00;0.90;;;4.00;47.00;;;;;;4994625;28;20436;-84
2022/03/08 18:18:45;;;;;;;0.30;0.20;;;4.00;47.00;;;;;;4994503;28;20503;-85
2022/03/08 18:21:12;;;;;;;0.60;0.60;;;4.00;46.80;;;;;;4994212;28;20460;-84
2022/03/08 18:23:39;;;;;;;0.40;0.40;;;3.90;47.30;;;;;;4994276;28;20943;-84
2022/03/08 18:26:06;;;;;;;1.17;1.17;;;3.80;47.30;;;;;;4994525;28;20428;-84
2022/03/08 18:28:34;;;;;;;0.30;0.30;;;3.80;47.00;;;;;;4994395;28;20476;-85
2022/03/08 18:31:01;;;;;;;0.30;0.30;;;3.80;47.20;;;;;;4996111;28;20445;-84
2022/03/08 18:33:29;;;;;;;0.30;0.30;;;3.70;47.20;;;;;;4994590;28;20492;-85
2022/03/08 18:35:56;;;;;;;0.40;0.30;;;3.70;47.30;;;;;;4994200;28;20413;-85
2022/03/08 18:38:23;;;;;;;0.30;0.30;;;3.80;47.50;;;;;;4994214;28;20472;-85
2022/03/08 18:40:50;;;;;;;0.30;0.30;;;3.70;48.10;;;;;;4994274;28;20473;-85
2022/03/08 18:43:17;;;;;;;0.30;0.30;;;3.60;47.80;;;;;;4994207;28;20449;-85
2022/03/08 18:45:45;;;;;;;0.30;0.30;;;3.60;47.80;;;;;;4993933;28;20912;-84
2022/03/08 18:48:12;;;;;;;0.30;0.20;;;3.50;47.80;;;;;;4993934;28;20488;-85
2022/03/08 18:50:41;;;;;;;0.30;0.30;;;3.50;48.60;;;;;;4993815;28;20437;-85
2022/03/08 18:53:08;;;;;;;1.90;0.77;;;3.40;48.40;;;;;;4993777;28;20924;-84
2022/03/08 18:55:35;;;;;;;0.40;0.40;;;3.40;47.80;;;;;;4994391;28;20433;-85
2022/03/08 18:58:02;;;;;;;0.30;0.30;;;3.40;47.40;;;;;;4993996;28;20448;-85
2022/03/08 19:00:30;;;;;;;0.30;0.30;;;3.40;47.30;;;;;;4994056;28;20460;-85
2022/03/08 19:02:56;;;;;;;0.30;0.30;;;3.40;47.40;;;;;;4994090;28;21042;-85
2022/03/08 19:05:25;;;;;;;0.30;0.27;;;3.40;47.60;;;;;;4994809;28;20453;-85
2022/03/08 19:07:53;;;;;;;0.60;0.60;;;3.40;47.50;;;;;;4993566;28;20480;-84
2022/03/08 19:10:20;;;;;;;0.30;0.20;;;3.40;47.50;;;;;;4993680;28;20445;-82
2022/03/08 19:12:47;;;;;;;0.30;0.30;;;3.40;47.00;;;;;;4997118;28;20460;-84
2022/03/08 19:15:14;;;;;;;0.30;0.30;;;3.40;47.30;;;;;;4997755;28;20439;-84
2022/03/08 19:17:40;;;;;;;1.40;0.80;;;3.40;47.60;;;;;;4997473;28;21010;-85
2022/03/08 19:20:08;;;;;;;1.40;0.33;;;3.40;47.90;;;;;;4997795;28;20507;-85
2022/03/08 19:22:35;;;;;;;0.50;0.33;;;3.40;47.70;;;;;;4998284;28;20448;-84
2022/03/08 19:25:04;;;;;;;0.37;0.37;;;3.30;47.60;;;;;;4997714;28;20453;-84
2022/03/08 19:27:31;;;;;;;0.70;0.70;;;3.40;47.70;;;;;;4997573;28;20480;-84
2022/03/08 19:29:58;;;;;;;0.77;0.77;;;3.40;48.10;;;;;;4997511;28;20440;-84
2022/03/08 19:32:25;;;;;;;0.30;0.30;;;3.30;48.20;;;;;;4997495;28;20507;-85
2022/03/08 19:34:53;;;;;;;0.30;0.20;;;3.20;48.00;;;;;;4998484;28;20456;-85
2022/03/08 19:37:21;;;;;;;0.30;0.30;;;3.20;48.10;;;;;;5000095;28;20563;-84
2022/03/08 19:39:48;;;;;;;0.30;0.30;;;3.10;48.60;;;;;;4999009;28;20571;-84
2022/03/08 19:42:16;;;;;;;0.30;0.30;;;3.10;48.30;;;;;;4998985;28;20460;-85
2022/03/08 19:44:43;;;;;;;0.30;0.30;;;3.10;48.70;;;;;;4998780;28;20459;-84
2022/03/08 19:47:11;;;;;;;2.57;2.47;;;3.10;48.70;;;;;;4998096;28;20544;-84
2022/03/08 19:49:37;;;;;;;0.43;0.43;;;3.10;48.40;;;;;;4999503;28;20476;-85
2022/03/08 19:52:05;;;;;;;0.30;0.30;;;3.10;48.90;;;;;;4998514;28;20812;-84
2022/03/08 19:54:33;;;;;;;0.30;0.30;;;3.20;48.80;;;;;;4998112;28;20471;-84
2022/03/08 19:57:00;;;;;;;0.30;0.30;;;3.10;49.10;;;;;;4998305;28;20503;-84
2022/03/08 19:59:28;;;;;;;0.30;0.30;;;3.00;49.30;;;;;;4998935;28;20510;-86
2022/03/08 20:01:58;;;;;;;0.30;0.30;;;3.00;49.30;;;;;;4999175;28;20483;-87
2022/03/08 20:04:25;;;;;;;1.63;1.53;;;3.00;48.90;;;;;;4998417;28;20452;-86
2022/03/08 20:06:54;;;;;;;0.37;0.33;;;3.00;49.20;;;;;;4997937;28;20465;-86
2022/03/08 20:09:22;;;;;;;0.30;0.20;;;3.00;49.50;;;;;;4998571;28;20951;-86
2022/03/08 20:11:50;;;;;;;0.40;0.40;;;3.00;49.30;;;;;;4998481;28;20455;-86
2022/03/08 20:14:16;;;;;;;0.40;0.40;;;3.00;49.30;;;;;;4998600;28;20487;-86
2022/03/08 20:16:45;;;;;;;0.30;0.30;;;3.00;49.30;;;;;;4997588;28;20460;-87
2022/03/08 20:19:12;;;;;;;0.40;0.40;;;3.00;49.60;;;;;;4998622;28;20452;-85
2022/03/08 20:21:39;;;;;;;1.13;1.03;;;2.90;49.70;;;;;;4998682;28;20518;-86
2022/03/08 20:24:07;;;;;;;0.30;0.27;;;2.90;49.70;;;;;;4998716;28;20528;-86
2022/03/08 20:26:38;;;;;;;0.70;0.70;;;2.80;49.70;;;;;;4999293;28;20460;-86
2022/03/08 20:29:08;;;;;;;1.43;0.97;;;2.80;49.80;;;;;;4999300;28;20573;-86
2022/03/08 20:31:36;;;;;;;0.50;0.50;;;2.90;50.00;;;;;;4999876;28;20452;-86
2022/03/08 20:34:05;;;;;;;0.40;0.40;;;2.80;50.20;;;;;;4999385;28;20507;-86
2022/03/08 20:36:33;;;;;;;0.30;0.30;;;2.70;50.10;;;;;;4999258;28;21035;-86
2022/03/08 20:39:01;;;;;;;0.30;0.30;;;2.70;50.50;;;;;;4999210;28;20468;-86
2022/03/08 20:41:29;;;;;;;0.30;0.20;;;2.60;50.70;;;;;;4998484;28;20571;-86
2022/03/08 20:43:56;;;;;;;0.30;0.30;;;2.60;50.70;;;;;;4998903;28;20829;-86
2022/03/08 20:46:24;;;;;;;0.30;0.30;;;2.60;51.10;;;;;;4998352;28;20496;-86
2022/03/08 20:48:52;;;;;;;0.30;0.20;;;2.60;50.80;;;;;;4997908;28;20492;-86